Time;durP1;ratioP1;P1;durP2;ratioP2;P2;SDS_P1;SDS_P2;PMS_P1;PMS_P2;Temp;Humidity;BMP_temperature;BMP_pressure;BME280_temperature;BME280_humidity;BME280_pressure;Samples;Min_cycle;Max_cycle;Signal;HPM_P1;HPM_P2
2021/12/19 00:00:29;;;;;;;55.13;23.70;;;2.40;99.90;;;;;;4977545;28;20434;-70
2021/12/19 00:08:41;;;;;;;51.70;23.63;;;2.40;99.90;;;;;;4980541;28;20122;-70
2021/12/19 00:11:08;;;;;;;53.63;23.90;;;2.50;99.90;;;;;;4982377;28;20085;-71
2021/12/19 00:13:34;;;;;;;58.63;24.42;;;2.50;99.90;;;;;;4980656;28;20030;-69
2021/12/19 00:16:03;;;;;;;49.97;24.70;;;2.50;99.90;;;;;;4981624;28;20030;-68
2021/12/19 00:18:28;;;;;;;54.65;23.83;;;2.40;99.90;;;;;;4982723;28;20026;-69
2021/12/19 00:20:57;;;;;;;56.53;25.63;;;2.40;99.90;;;;;;4984562;28;20038;-69
2021/12/19 00:23:23;;;;;;;59.00;25.45;;;2.50;99.90;;;;;;4983285;28;20046;-69
2021/12/19 00:25:48;;;;;;;57.95;24.30;;;2.50;99.90;;;;;;4983458;28;20062;-69
2021/12/19 00:28:14;;;;;;;54.47;23.52;;;2.50;99.90;;;;;;4976496;28;20487;-70
2021/12/19 00:30:40;;;;;;;53.28;24.33;;;2.50;99.90;;;;;;4989578;28;20098;-70
2021/12/19 00:33:06;;;;;;;57.75;25.38;;;2.50;99.90;;;;;;4980381;28;20059;-70
2021/12/19 00:35:31;;;;;;;55.25;24.02;;;2.50;99.90;;;;;;4981188;28;20526;-69
2021/12/19 00:37:57;;;;;;;55.20;24.98;;;2.50;99.90;;;;;;4980033;28;20034;-70
2021/12/19 00:40:23;;;;;;;53.75;25.02;;;2.50;99.90;;;;;;4982459;28;20077;-69
2021/12/19 00:43:02;;;;;;;53.85;25.05;;;2.50;99.90;;;;;;4981460;28;20045;-68
2021/12/19 00:45:31;;;;;;;57.55;25.73;;;2.50;99.90;;;;;;4982137;28;20039;-70
2021/12/19 00:47:58;;;;;;;53.55;24.50;;;2.50;99.90;;;;;;4998182;28;20038;-70
2021/12/19 00:50:26;;;;;;;55.28;24.33;;;2.40;99.90;;;;;;4976994;28;20042;-70
2021/12/19 00:52:52;;;;;;;65.07;27.02;;;2.40;99.90;;;;;;4977260;28;20029;-70
2021/12/19 00:55:20;;;;;;;60.80;24.17;;;2.40;99.90;;;;;;4975658;28;20487;-69
2021/12/19 00:57:46;;;;;;;57.08;26.02;;;2.40;99.90;;;;;;4976018;28;20037;-69
2021/12/19 01:00:16;;;;;;;60.67;24.63;;;2.40;99.90;;;;;;4977719;28;20107;-70
2021/12/19 01:02:45;;;;;;;60.85;27.27;;;2.40;99.90;;;;;;4973715;28;20026;-69
2021/12/19 01:05:13;;;;;;;56.72;26.10;;;2.40;99.90;;;;;;4999886;28;20061;-69
2021/12/19 01:07:39;;;;;;;56.95;25.50;;;2.30;99.90;;;;;;4996044;28;20034;-69
2021/12/19 01:10:07;;;;;;;57.47;26.00;;;2.40;99.90;;;;;;4981181;28;20034;-69
2021/12/19 01:12:38;;;;;;;55.03;23.67;;;2.30;99.90;;;;;;4986513;28;20029;-69
2021/12/19 01:15:11;;;;;;;59.05;24.27;;;2.40;99.90;;;;;;4980384;28;20109;-69
2021/12/19 01:17:37;;;;;;;60.35;26.40;;;2.30;99.90;;;;;;4984180;28;20072;-70
2021/12/19 01:20:06;;;;;;;52.35;24.48;;;2.30;99.90;;;;;;4983494;28;20121;-69
2021/12/19 01:22:37;;;;;;;58.38;25.20;;;2.30;99.90;;;;;;4986529;28;20031;-69
2021/12/19 01:25:04;;;;;;;49.53;22.05;;;2.30;99.90;;;;;;4981177;28;20026;-70
2021/12/19 01:27:29;;;;;;;54.40;23.55;;;2.30;99.90;;;;;;4982619;28;20066;-69
2021/12/19 01:29:55;;;;;;;53.88;23.63;;;2.20;99.90;;;;;;4984038;28;20069;-70
2021/12/19 01:32:21;;;;;;;51.35;22.73;;;2.30;99.90;;;;;;4981067;28;20023;-69
2021/12/19 01:34:46;;;;;;;53.63;24.17;;;2.20;99.90;;;;;;4983665;28;20030;-69
2021/12/19 01:37:13;;;;;;;51.72;22.95;;;2.30;99.90;;;;;;4983628;28;20064;-69
2021/12/19 01:39:41;;;;;;;53.53;24.77;;;2.30;99.90;;;;;;4982299;28;20046;-69
2021/12/19 01:42:11;;;;;;;53.15;23.40;;;2.20;99.90;;;;;;4985250;28;20037;-69
2021/12/19 01:44:38;;;;;;;47.92;21.60;;;2.20;99.90;;;;;;4979008;28;20101;-70
2021/12/19 01:47:04;;;;;;;51.03;22.55;;;2.20;99.90;;;;;;4986548;28;20031;-70
2021/12/19 01:49:33;;;;;;;45.72;20.60;;;2.20;99.90;;;;;;4978571;28;20026;-69
2021/12/19 01:51:58;;;;;;;50.10;21.80;;;2.20;99.90;;;;;;4984504;28;20042;-69
2021/12/19 01:54:24;;;;;;;49.30;21.13;;;2.10;99.90;;;;;;4993786;28;20487;-69
2021/12/19 01:56:53;;;;;;;44.88;19.90;;;2.10;99.90;;;;;;4985587;28;20499;-69
2021/12/19 01:59:18;;;;;;;45.72;19.85;;;2.10;99.90;;;;;;4982326;28;20026;-70
2021/12/19 02:01:47;;;;;;;47.15;20.17;;;2.10;99.90;;;;;;4994014;23;20053;-73
2021/12/19 02:04:17;;;;;;;48.53;20.70;;;2.10;99.90;;;;;;4992188;28;20034;-73
2021/12/19 02:06:46;;;;;;;52.08;22.45;;;2.10;99.90;;;;;;4989531;28;20535;-74
2021/12/19 02:09:18;;;;;;;50.28;22.00;;;2.10;99.90;;;;;;4986689;28;20026;-73
2021/12/19 02:11:47;;;;;;;50.85;22.42;;;2.10;99.90;;;;;;4985897;28;20033;-72
2021/12/19 02:14:17;;;;;;;52.35;23.70;;;2.10;99.90;;;;;;4988099;28;20038;-73
2021/12/19 02:16:42;;;;;;;52.72;22.48;;;2.10;99.90;;;;;;4987596;28;20062;-72
2021/12/19 02:19:09;;;;;;;55.78;23.27;;;2.20;99.90;;;;;;4984410;28;20072;-73
2021/12/19 02:21:36;;;;;;;53.30;22.85;;;2.20;99.90;;;;;;4989422;28;20042;-74
2021/12/19 02:24:06;;;;;;;61.45;24.98;;;2.20;99.90;;;;;;4984843;28;20026;-73
2021/12/19 02:26:32;;;;;;;57.22;24.27;;;2.10;99.90;;;;;;4984768;28;20030;-73
2021/12/19 02:28:57;;;;;;;65.80;26.02;;;2.10;99.90;;;;;;4987345;28;20022;-73
2021/12/19 02:31:23;;;;;;;64.50;27.23;;;2.10;99.90;;;;;;4986408;28;20494;-74
2021/12/19 02:34:16;;;;;;;65.43;24.75;;;2.10;99.90;;;;;;4986349;28;20078;-74
2021/12/19 02:50:05;;;;;;;63.72;26.85;;;1.90;99.90;;;;;;4986012;28;20044;-73
2021/12/19 02:52:30;;;;;;;60.70;25.92;;;2.00;99.90;;;;;;4986917;28;20053;-74
2021/12/19 02:54:56;;;;;;;53.22;24.00;;;1.90;99.90;;;;;;4984827;28;20027;-73
2021/12/19 02:57:22;;;;;;;57.38;25.15;;;2.00;99.90;;;;;;4983592;28;20034;-73
2021/12/19 02:59:48;;;;;;;52.88;22.27;;;2.00;99.90;;;;;;4982164;28;20189;-72
2021/12/19 03:02:15;;;;;;;55.00;23.38;;;1.90;99.90;;;;;;4984520;28;20041;-73
2021/12/19 03:04:52;;;;;;;63.33;26.13;;;1.80;99.90;;;;;;4988075;28;20120;-72
2021/12/19 03:07:25;;;;;;;62.38;24.30;;;1.90;99.90;;;;;;4988666;28;20030;-73
2021/12/19 03:18:00;;;;;;;58.67;24.90;;;1.90;99.90;;;;;;4979563;28;20431;-72
2021/12/19 03:20:28;;;;;;;64.53;26.83;;;1.90;99.90;;;;;;4985428;28;20080;-73
2021/12/19 03:23:00;;;;;;;61.38;24.13;;;1.80;99.90;;;;;;4999315;28;20050;-73
2021/12/19 03:25:28;;;;;;;53.88;23.33;;;1.80;99.90;;;;;;4989014;28;20022;-73
2021/12/19 03:27:57;;;;;;;60.60;24.77;;;1.80;99.90;;;;;;4980598;28;20057;-73
2021/12/19 03:30:23;;;;;;;60.80;24.98;;;1.80;99.90;;;;;;4986596;28;20049;-73
2021/12/19 03:32:49;;;;;;;60.47;25.60;;;1.80;99.90;;;;;;4981649;28;20018;-72
2021/12/19 03:35:15;;;;;;;60.30;24.50;;;1.90;99.90;;;;;;4979886;28;20388;-73
2021/12/19 03:37:47;;;;;;;63.20;24.65;;;1.90;99.90;;;;;;4985698;28;20761;-73
2021/12/19 03:40:21;;;;;;;57.38;25.55;;;2.00;99.90;;;;;;4985111;28;20026;-73
2021/12/19 03:42:49;;;;;;;61.70;23.40;;;1.90;99.90;;;;;;4986350;28;20041;-73
2021/12/19 03:45:19;;;;;;;55.50;22.42;;;1.90;99.90;;;;;;4981956;28;20090;-74
2021/12/19 03:47:46;;;;;;;61.15;24.60;;;1.90;99.90;;;;;;4983125;28;20022;-73
2021/12/19 03:50:17;;;;;;;60.35;24.65;;;1.80;99.90;;;;;;4985614;28;20499;-72
2021/12/19 03:52:46;;;;;;;58.53;24.27;;;1.80;99.90;;;;;;4980091;28;20031;-74
2021/12/19 03:55:12;;;;;;;59.63;25.08;;;1.70;99.90;;;;;;4996397;28;20038;-72
2021/12/19 03:57:45;;;;;;;61.50;25.92;;;1.70;99.90;;;;;;4983149;28;20049;-75
2021/12/19 04:00:24;;;;;;;62.30;25.27;;;1.70;99.90;;;;;;4982234;28;20089;-73
2021/12/19 04:02:53;;;;;;;64.97;24.23;;;1.70;99.90;;;;;;4981037;28;20438;-73
2021/12/19 04:05:18;;;;;;;57.70;23.77;;;1.70;99.90;;;;;;4986396;28;20057;-73
2021/12/19 04:07:44;;;;;;;52.05;21.55;;;1.80;99.90;;;;;;4983438;28;20030;-73
2021/12/19 04:10:13;;;;;;;59.90;21.55;;;1.70;99.90;;;;;;4979809;28;20026;-73
2021/12/19 04:12:40;;;;;;;49.25;19.90;;;1.70;99.90;;;;;;4982688;28;20027;-73
2021/12/19 04:15:09;;;;;;;52.78;19.70;;;1.70;99.90;;;;;;4980215;28;20081;-74
2021/12/19 04:17:35;;;;;;;51.42;20.80;;;1.60;99.90;;;;;;4988459;28;20026;-73
2021/12/19 04:20:01;;;;;;;61.85;20.20;;;1.60;99.90;;;;;;4980044;28;20162;-73
2021/12/19 04:22:27;;;;;;;55.83;21.33;;;1.70;99.90;;;;;;4985468;28;20026;-73
2021/12/19 04:24:53;;;;;;;51.72;19.77;;;1.70;99.90;;;;;;4987041;28;20089;-73
2021/12/19 04:27:19;;;;;;;50.92;19.20;;;1.70;99.90;;;;;;4979616;28;20038;-74
2021/12/19 04:29:45;;;;;;;56.10;19.70;;;1.70;99.90;;;;;;4983281;28;20525;-73
2021/12/19 04:32:14;;;;;;;48.03;19.52;;;1.60;99.90;;;;;;4998610;28;20357;-73
2021/12/19 04:34:40;;;;;;;46.58;19.17;;;1.60;99.90;;;;;;4985021;28;20491;-73
2021/12/19 04:37:31;;;;;;;46.58;18.02;;;1.70;99.90;;;;;;4980877;28;20030;-73
2021/12/19 04:39:57;;;;;;;46.53;18.38;;;1.60;99.90;;;;;;4981928;28;20368;-74
2021/12/19 04:53:13;;;;;;;;;;;;;;;;;;;;;
2021/12/19 05:04:06;;;;;;;45.33;16.25;;;1.40;99.90;;;;;;4967195;28;20471;-75
2021/12/19 05:13:58;;;;;;;46.35;16.13;;;1.40;99.90;;;;;;4989107;28;20110;-72
2021/12/19 05:14:52;;;;;;;46.33;15.80;;;1.50;99.90;;;;;;4991439;28;20038;-72
2021/12/19 05:17:23;;;;;;;37.72;15.75;;;1.50;99.90;;;;;;4998740;28;20054;-72
2021/12/19 05:22:38;;;;;;;43.33;14.68;;;1.50;99.90;;;;;;4986328;28;20037;-72
2021/12/19 05:25:14;;;;;;;41.17;14.98;;;1.50;99.90;;;;;;4990108;28;20084;-73
2021/12/19 05:27:54;;;;;;;41.05;15.10;;;1.50;99.90;;;;;;4988235;28;20026;-73
2021/12/19 05:30:21;;;;;;;37.53;15.32;;;1.40;99.90;;;;;;4985590;28;20030;-72
2021/12/19 05:32:48;;;;;;;31.92;13.45;;;1.40;99.90;;;;;;4990435;28;20118;-73
2021/12/19 05:35:20;;;;;;;38.08;14.30;;;1.40;99.90;;;;;;4984287;28;20038;-73
2021/12/19 05:45:58;;;;;;;34.28;13.98;;;1.30;99.90;;;;;;4989371;28;20016;-73
2021/12/19 05:48:23;;;;;;;40.90;14.38;;;1.30;99.90;;;;;;4988930;28;20114;-75
2021/12/19 05:50:49;;;;;;;40.03;14.10;;;1.30;99.90;;;;;;4990630;28;20058;-76
2021/12/19 05:53:15;;;;;;;37.55;14.13;;;1.30;99.90;;;;;;4987777;28;20031;-74
2021/12/19 05:55:41;;;;;;;43.25;15.45;;;1.30;99.90;;;;;;4987618;28;20391;-75
2021/12/19 05:58:07;;;;;;;43.13;15.65;;;1.40;99.90;;;;;;4986751;28;20042;-73
2021/12/19 06:00:33;;;;;;;41.83;16.42;;;1.40;99.90;;;;;;4989385;28;20360;-74
2021/12/19 06:03:01;;;;;;;42.53;16.35;;;1.40;99.90;;;;;;4990652;28;20030;-73
2021/12/19 06:05:26;;;;;;;44.22;15.18;;;1.40;99.90;;;;;;4991938;28;20419;-73
2021/12/19 06:07:52;;;;;;;42.10;15.38;;;1.40;99.90;;;;;;4985611;28;20034;-74
2021/12/19 06:10:19;;;;;;;42.38;15.23;;;1.30;99.90;;;;;;4990150;28;20092;-74
2021/12/19 06:12:45;;;;;;;41.63;16.17;;;1.30;99.90;;;;;;4987443;28;20499;-73
2021/12/19 06:15:11;;;;;;;44.95;16.30;;;1.30;99.90;;;;;;4989630;28;20038;-74
2021/12/19 06:17:39;;;;;;;37.72;15.35;;;1.20;99.90;;;;;;4990109;28;20029;-74
2021/12/19 06:20:05;;;;;;;33.28;13.32;;;1.20;99.90;;;;;;4990548;28;20030;-74
2021/12/19 06:22:31;;;;;;;38.90;14.27;;;1.10;99.90;;;;;;4988917;28;20542;-74
2021/12/19 06:24:57;;;;;;;35.10;14.38;;;1.10;99.90;;;;;;4988280;28;20054;-73
2021/12/19 06:27:22;;;;;;;37.33;13.63;;;1.20;99.90;;;;;;4986437;28;20094;-74
2021/12/19 06:29:49;;;;;;;37.72;14.73;;;1.20;99.90;;;;;;4985454;28;20410;-75
2021/12/19 06:32:16;;;;;;;36.67;15.27;;;1.20;99.90;;;;;;4988262;28;20034;-73
2021/12/19 06:34:42;;;;;;;34.88;14.55;;;1.20;99.90;;;;;;4990309;28;20025;-74
2021/12/19 06:37:10;;;;;;;41.00;15.35;;;1.20;99.90;;;;;;4986552;28;20367;-75
2021/12/19 06:39:37;;;;;;;36.72;14.07;;;1.10;99.90;;;;;;4990208;28;20022;-75
2021/12/19 06:42:04;;;;;;;37.38;13.80;;;1.10;99.90;;;;;;4988228;28;20027;-76
2021/12/19 06:44:31;;;;;;;38.40;13.52;;;1.00;99.90;;;;;;5005558;28;20081;-74
2021/12/19 06:46:56;;;;;;;42.38;15.25;;;1.00;99.90;;;;;;4989122;28;20061;-74
2021/12/19 06:49:22;;;;;;;39.08;15.07;;;1.10;99.90;;;;;;5000620;28;20078;-74
2021/12/19 06:51:48;;;;;;;35.83;12.88;;;1.10;99.90;;;;;;4987304;28;20042;-74
2021/12/19 06:54:13;;;;;;;35.88;13.98;;;1.00;99.90;;;;;;4991762;28;20129;-75
2021/12/19 06:56:39;;;;;;;41.90;14.95;;;1.00;99.90;;;;;;4988369;28;20140;-73
2021/12/19 06:59:05;;;;;;;38.72;15.73;;;1.00;99.90;;;;;;5002118;28;20046;-74
2021/12/19 07:01:30;;;;;;;44.28;16.98;;;1.00;99.90;;;;;;4985802;28;20123;-75
2021/12/19 07:03:56;;;;;;;46.40;18.20;;;1.00;99.90;;;;;;4984832;28;20042;-75
2021/12/19 07:06:22;;;;;;;47.85;17.48;;;0.90;99.90;;;;;;4987799;28;20030;-75
2021/12/19 07:08:48;;;;;;;48.17;18.38;;;1.00;99.90;;;;;;4986264;28;20041;-75
2021/12/19 07:11:14;;;;;;;49.92;18.17;;;1.00;99.90;;;;;;4984296;28;20042;-74
2021/12/19 07:13:39;;;;;;;44.00;17.95;;;1.00;99.90;;;;;;4986992;28;20034;-75
2021/12/19 07:16:06;;;;;;;44.38;17.48;;;1.10;99.90;;;;;;4979100;28;20030;-75
2021/12/19 07:18:38;;;;;;;39.25;15.25;;;1.10;99.90;;;;;;4987406;28;20046;-75
2021/12/19 07:21:06;;;;;;;43.83;16.02;;;1.10;99.90;;;;;;4983820;28;20153;-74
2021/12/19 07:23:35;;;;;;;41.20;16.45;;;1.10;99.90;;;;;;4981527;28;20077;-73
2021/12/19 07:26:01;;;;;;;35.80;15.63;;;1.10;99.90;;;;;;4982618;28;20048;-75
2021/12/19 07:28:27;;;;;;;45.90;16.95;;;1.00;99.90;;;;;;4981553;28;20106;-75
2021/12/19 07:30:54;;;;;;;43.08;16.73;;;1.00;99.90;;;;;;4986217;28;20470;-74
2021/12/19 07:33:19;;;;;;;42.22;16.45;;;1.10;99.90;;;;;;4983714;28;20030;-77
2021/12/19 07:35:48;;;;;;;45.58;16.88;;;1.00;99.90;;;;;;4986062;28;20502;-74
2021/12/19 07:38:28;;;;;;;39.25;14.57;;;0.90;99.90;;;;;;4982311;28;20048;-76
2021/12/19 07:40:56;;;;;;;30.70;12.40;;;0.90;99.90;;;;;;4979085;28;20078;-74
2021/12/19 07:43:22;;;;;;;32.88;14.05;;;0.90;99.90;;;;;;4985925;28;20026;-75
2021/12/19 07:45:48;;;;;;;32.45;13.43;;;0.90;99.90;;;;;;4991069;28;20474;-76
2021/12/19 07:48:14;;;;;;;33.22;12.40;;;0.90;99.90;;;;;;4986101;28;20030;-74
2021/12/19 07:50:39;;;;;;;30.02;11.30;;;1.00;99.90;;;;;;4985807;28;20114;-75
2021/12/19 07:53:05;;;;;;;36.20;12.90;;;1.00;99.90;;;;;;4990021;28;20185;-75
2021/12/19 07:55:32;;;;;;;37.35;14.25;;;0.90;99.90;;;;;;4983399;28;20030;-74
2021/12/19 07:57:57;;;;;;;39.00;14.13;;;1.00;99.90;;;;;;5002510;28;20057;-72
2021/12/19 08:00:23;;;;;;;44.30;15.85;;;1.10;99.90;;;;;;4986770;28;20022;-76
2021/12/19 08:02:49;;;;;;;37.90;14.95;;;1.20;99.90;;;;;;5001700;23;20574;-68
2021/12/19 08:05:17;;;;;;;38.38;14.38;;;1.20;99.90;;;;;;4983862;28;20097;-69
2021/12/19 08:07:46;;;;;;;34.95;14.18;;;1.20;99.90;;;;;;4993737;28;20038;-68
2021/12/19 08:11:39;;;;;;;31.98;13.82;;;1.20;99.90;;;;;;4988266;28;20038;-69
2021/12/19 08:12:58;;;;;;;35.65;13.27;;;1.30;99.90;;;;;;4968413;28;20074;-68
2021/12/19 08:15:24;;;;;;;39.30;15.05;;;1.30;99.90;;;;;;4969182;28;20065;-68
2021/12/19 08:17:50;;;;;;;32.78;12.73;;;1.30;99.90;;;;;;4970318;28;20059;-67
2021/12/19 08:20:17;;;;;;;35.80;13.35;;;1.30;99.90;;;;;;4970996;28;20034;-70
2021/12/19 08:22:43;;;;;;;34.53;14.38;;;1.30;99.90;;;;;;4973980;28;20397;-69
2021/12/19 08:25:09;;;;;;;37.17;14.70;;;1.30;99.90;;;;;;4975189;28;20058;-69
2021/12/19 08:27:38;;;;;;;36.35;13.63;;;1.30;99.90;;;;;;4974185;28;20038;-69
2021/12/19 08:30:07;;;;;;;30.48;12.15;;;1.20;99.90;;;;;;4975696;28;20035;-69
2021/12/19 08:32:42;;;;;;;31.45;13.05;;;1.30;99.90;;;;;;4976786;28;20015;-69
2021/12/19 08:35:09;;;;;;;36.92;15.07;;;1.30;99.90;;;;;;4975364;28;20042;-69
2021/12/19 08:37:35;;;;;;;32.22;13.90;;;1.30;99.90;;;;;;4984208;28;20042;-68
2021/12/19 08:40:00;;;;;;;38.40;14.00;;;1.30;99.90;;;;;;4971160;28;20038;-68
2021/12/19 08:42:28;;;;;;;43.80;15.82;;;1.30;99.90;;;;;;4973351;28;20421;-69
2021/12/19 08:44:54;;;;;;;38.63;15.48;;;1.30;99.90;;;;;;4972826;28;20098;-68
2021/12/19 08:47:20;;;;;;;43.97;16.15;;;1.40;99.90;;;;;;4971881;28;20058;-68
2021/12/19 08:49:46;;;;;;;39.72;14.48;;;1.40;99.90;;;;;;4973793;28;20027;-69
2021/12/19 08:52:12;;;;;;;38.38;14.60;;;1.40;99.90;;;;;;4976523;28;20092;-69
2021/12/19 08:54:40;;;;;;;33.60;12.95;;;1.40;99.90;;;;;;4963751;28;20038;-69
2021/12/19 08:57:06;;;;;;;35.88;15.25;;;1.40;99.90;;;;;;4974478;28;20022;-68
2021/12/19 08:59:32;;;;;;;41.25;16.20;;;1.50;99.90;;;;;;4974447;28;20023;-69
2021/12/19 09:02:01;;;;;;;33.05;13.52;;;1.40;99.90;;;;;;4975315;28;20476;-69
2021/12/19 09:04:27;;;;;;;33.47;13.73;;;1.50;99.90;;;;;;4970150;28;20623;-69
2021/12/19 09:06:56;;;;;;;36.63;14.13;;;1.50;99.90;;;;;;4963313;28;20108;-69
2021/12/19 09:09:21;;;;;;;32.63;12.45;;;1.60;99.90;;;;;;4970600;28;20027;-68
2021/12/19 09:11:47;;;;;;;33.33;13.40;;;1.60;99.90;;;;;;4974013;28;20742;-67
2021/12/19 09:14:13;;;;;;;31.40;13.15;;;1.60;99.90;;;;;;4977686;28;20424;-67
2021/12/19 09:16:39;;;;;;;28.55;11.95;;;1.60;99.90;;;;;;4974276;28;20551;-68
2021/12/19 09:19:05;;;;;;;32.85;12.32;;;1.60;99.90;;;;;;4975461;28;20030;-68
2021/12/19 09:21:31;;;;;;;31.33;12.45;;;1.50;99.90;;;;;;4975674;28;20023;-70
2021/12/19 09:23:56;;;;;;;29.88;12.82;;;1.50;99.90;;;;;;4979559;28;20483;-68
2021/12/19 09:26:22;;;;;;;31.85;12.43;;;1.40;99.90;;;;;;4974462;28;20023;-69
2021/12/19 09:28:48;;;;;;;34.22;12.75;;;1.40;99.90;;;;;;4972322;28;20038;-68
2021/12/19 09:31:13;;;;;;;35.90;12.60;;;1.40;99.90;;;;;;4974217;28;20031;-68
2021/12/19 09:33:39;;;;;;;34.25;14.65;;;1.40;99.90;;;;;;4971042;28;20036;-70
2021/12/19 09:36:05;;;;;;;32.85;13.20;;;1.40;99.90;;;;;;4963481;28;20078;-69
2021/12/19 09:38:30;;;;;;;32.90;12.45;;;1.40;99.90;;;;;;4965931;28;20130;-68
2021/12/19 09:41:11;;;;;;;29.67;11.77;;;1.40;99.90;;;;;;4970489;28;20023;-71
2021/12/19 09:43:44;;;;;;;30.65;11.73;;;1.60;99.90;;;;;;4971420;28;20042;-70
2021/12/19 09:46:12;;;;;;;31.95;11.13;;;1.70;99.90;;;;;;4970175;28;20031;-68
2021/12/19 09:48:40;;;;;;;33.70;12.48;;;1.80;99.90;;;;;;4966714;28;20034;-68
2021/12/19 09:51:08;;;;;;;32.45;11.98;;;1.70;99.90;;;;;;4973629;28;20054;-69
2021/12/19 09:53:34;;;;;;;30.73;12.48;;;1.60;99.90;;;;;;4968770;28;20018;-70
2021/12/19 09:56:00;;;;;;;29.48;11.43;;;1.60;99.90;;;;;;4970677;28;20077;-69
2021/12/19 09:58:26;;;;;;;28.90;10.55;;;1.60;99.90;;;;;;4969686;28;20038;-69
2021/12/19 10:00:53;;;;;;;34.15;13.30;;;1.60;99.90;;;;;;4971607;28;20458;-69
2021/12/19 10:03:20;;;;;;;30.27;11.55;;;1.60;99.90;;;;;;4962778;28;20106;-69
2021/12/19 10:05:46;;;;;;;32.03;11.38;;;1.50;99.90;;;;;;4982211;28;20030;-70
2021/12/19 10:08:24;;;;;;;27.48;10.75;;;1.60;99.90;;;;;;4970417;28;20121;-69
2021/12/19 10:10:56;;;;;;;25.67;10.65;;;1.70;99.90;;;;;;4974931;28;20030;-71
2021/12/19 10:13:36;;;;;;;28.88;11.13;;;1.80;99.90;;;;;;4970697;28;20456;-69
2021/12/19 10:16:26;;;;;;;30.05;12.45;;;1.80;99.90;;;;;;4968479;28;20026;-70
2021/12/19 10:18:58;;;;;;;29.23;11.60;;;1.90;99.90;;;;;;4969549;28;20042;-69
2021/12/19 10:21:25;;;;;;;29.73;12.23;;;1.90;99.90;;;;;;4972831;28;20526;-70
2021/12/19 10:23:51;;;;;;;33.85;12.75;;;1.90;99.90;;;;;;4984042;28;20122;-71
2021/12/19 10:26:17;;;;;;;36.45;14.23;;;2.00;99.90;;;;;;4969295;28;20103;-69
2021/12/19 10:29:00;;;;;;;37.38;13.57;;;2.00;99.90;;;;;;4971671;28;20110;-71
2021/12/19 10:31:28;;;;;;;34.10;14.48;;;2.10;99.90;;;;;;4968327;28;20077;-70
2021/12/19 10:33:56;;;;;;;35.58;14.23;;;2.10;99.90;;;;;;4968067;28;20523;-72
2021/12/19 10:36:22;;;;;;;32.05;12.70;;;2.10;99.90;;;;;;4968898;28;20033;-70
2021/12/19 10:38:56;;;;;;;37.65;13.80;;;2.10;99.90;;;;;;4970355;28;20058;-70
2021/12/19 10:41:33;;;;;;;32.75;12.85;;;2.10;99.90;;;;;;4970749;28;20028;-72
2021/12/19 10:44:07;;;;;;;33.47;12.63;;;1.90;99.90;;;;;;4971046;28;20039;-70
2021/12/19 10:46:40;;;;;;;29.95;13.43;;;2.00;99.90;;;;;;4969985;28;20109;-70
2021/12/19 10:49:32;;;;;;;30.45;12.73;;;2.00;99.90;;;;;;4971658;28;20030;-70
2021/12/19 10:52:01;;;;;;;32.13;13.63;;;2.10;99.90;;;;;;4971056;28;20110;-70
2021/12/19 10:54:28;;;;;;;27.42;11.63;;;2.10;99.90;;;;;;4969772;28;20046;-70
2021/12/19 10:57:10;;;;;;;28.15;12.60;;;2.20;99.90;;;;;;4968029;28;20548;-71
2021/12/19 10:59:36;;;;;;;27.48;11.18;;;2.30;99.90;;;;;;4969567;28;20095;-70
2021/12/19 11:02:02;;;;;;;27.90;12.02;;;2.30;99.90;;;;;;4967684;28;20526;-70
2021/12/19 11:04:29;;;;;;;23.95;11.20;;;2.40;99.90;;;;;;4969553;28;20030;-70
2021/12/19 11:06:58;;;;;;;24.65;11.25;;;2.40;99.90;;;;;;4964793;28;20022;-71
2021/12/19 11:09:31;;;;;;;26.80;10.90;;;2.50;99.90;;;;;;4961999;28;20085;-72
2021/12/19 11:11:59;;;;;;;23.02;10.93;;;2.50;99.90;;;;;;4959898;28;20038;-69
2021/12/19 11:14:40;;;;;;;23.85;10.93;;;2.50;99.90;;;;;;4961648;28;20114;-71
2021/12/19 11:17:20;;;;;;;22.85;9.38;;;2.50;99.90;;;;;;4967017;28;20027;-71
2021/12/19 11:19:48;;;;;;;25.95;8.95;;;2.60;99.90;;;;;;4966571;28;20061;-71
2021/12/19 11:22:23;;;;;;;20.52;9.27;;;2.40;99.90;;;;;;4962239;28;20023;-71
2021/12/19 11:24:49;;;;;;;22.27;9.52;;;2.30;99.90;;;;;;4969605;28;20023;-72
2021/12/19 11:27:15;;;;;;;23.38;10.80;;;2.10;99.90;;;;;;4967068;28;20118;-72
2021/12/19 11:29:45;;;;;;;25.85;11.82;;;2.10;99.90;;;;;;4968567;28;20031;-72
2021/12/19 11:32:18;;;;;;;23.10;11.10;;;2.20;99.90;;;;;;4961256;28;20030;-71
2021/12/19 11:35:04;;;;;;;25.50;11.53;;;2.30;99.90;;;;;;4964329;28;20034;-71
2021/12/19 11:37:34;;;;;;;25.55;10.23;;;2.40;99.90;;;;;;4967438;28;20027;-71
2021/12/19 11:40:03;;;;;;;20.65;10.73;;;2.40;99.90;;;;;;4967633;28;20038;-68
2021/12/19 11:42:32;;;;;;;23.38;10.02;;;2.60;99.90;;;;;;4967000;28;20246;-66
2021/12/19 11:47:56;;;;;;;23.55;10.20;;;3.00;99.90;;;;;;4969799;28;20042;-71
2021/12/19 11:50:23;;;;;;;22.27;10.90;;;2.90;99.90;;;;;;4965163;28;20073;-71
2021/12/19 11:52:52;;;;;;;23.77;9.95;;;2.80;99.90;;;;;;4967186;28;20033;-71
2021/12/19 11:55:19;;;;;;;25.08;10.75;;;2.80;99.90;;;;;;4978998;28;20038;-71
2021/12/19 11:58:06;;;;;;;23.38;10.65;;;2.80;99.90;;;;;;4963175;28;20383;-71
2021/12/19 12:00:53;;;;;;;26.08;10.90;;;2.80;99.90;;;;;;4961068;28;20058;-72
2021/12/19 12:03:21;;;;;;;24.25;11.07;;;2.80;99.90;;;;;;4964648;28;20022;-73
2021/12/19 12:06:22;;;;;;;24.17;10.63;;;2.80;99.90;;;;;;4967165;28;20404;-72
2021/12/19 12:09:06;;;;;;;25.63;11.40;;;2.80;99.90;;;;;;4978885;28;20412;-71
2021/12/19 12:11:32;;;;;;;23.73;10.65;;;2.60;99.90;;;;;;4967717;28;20106;-72
2021/12/19 12:14:24;;;;;;;27.27;11.18;;;2.60;99.90;;;;;;4969351;28;20034;-72
2021/12/19 12:17:04;;;;;;;26.33;11.70;;;2.60;99.90;;;;;;4968405;28;20127;-74
2021/12/19 12:19:44;;;;;;;25.85;11.52;;;2.50;99.90;;;;;;4962885;28;20027;-71
2021/12/19 12:22:42;;;;;;;27.00;11.57;;;2.50;99.90;;;;;;4962147;28;20019;-71
2021/12/19 12:25:09;;;;;;;32.13;13.00;;;2.40;99.90;;;;;;4961897;28;20030;-71
2021/12/19 12:27:38;;;;;;;30.33;12.90;;;2.30;99.90;;;;;;4965758;28;20031;-72
2021/12/19 12:30:07;;;;;;;30.35;13.35;;;2.20;99.90;;;;;;4965151;28;20054;-72
2021/12/19 12:32:36;;;;;;;30.40;13.00;;;2.20;99.90;;;;;;4966451;28;20034;-73
2021/12/19 12:35:12;;;;;;;32.17;12.85;;;2.30;99.90;;;;;;4967202;28;20448;-72
2021/12/19 12:37:40;;;;;;;29.42;13.20;;;2.30;99.90;;;;;;4966848;28;20027;-72
2021/12/19 12:40:53;;;;;;;30.80;13.95;;;2.30;99.90;;;;;;4969156;28;20030;-72
2021/12/19 12:43:30;;;;;;;28.20;12.02;;;2.20;99.90;;;;;;4963414;28;20031;-73
2021/12/19 12:46:16;;;;;;;28.50;11.93;;;2.00;99.90;;;;;;4967182;28;20061;-72
2021/12/19 12:49:00;;;;;;;33.85;12.60;;;2.00;99.90;;;;;;4965428;28;20050;-71
2021/12/19 12:51:42;;;;;;;34.17;14.55;;;2.00;99.90;;;;;;4964435;28;20031;-71
2021/12/19 12:54:14;;;;;;;34.38;14.00;;;2.10;99.90;;;;;;4960996;28;20091;-72
2021/12/19 12:56:50;;;;;;;36.63;14.85;;;2.20;99.90;;;;;;4961386;28;20027;-73
2021/12/19 12:59:31;;;;;;;34.10;13.95;;;2.20;99.90;;;;;;4968123;28;20023;-71
2021/12/19 13:04:47;;;;;;;35.35;14.00;;;2.30;99.90;;;;;;4961863;28;20499;-71
2021/12/19 13:07:21;;;;;;;35.70;13.43;;;2.30;99.90;;;;;;4966935;28;20073;-73
2021/12/19 13:09:57;;;;;;;31.58;13.85;;;2.30;99.90;;;;;;4972521;28;20089;-72
2021/12/19 13:12:26;;;;;;;32.13;13.45;;;2.40;99.90;;;;;;4970818;28;20058;-75
2021/12/19 13:14:55;;;;;;;28.55;12.93;;;2.40;99.90;;;;;;4971774;28;20043;-70
2021/12/19 13:17:29;;;;;;;31.65;13.52;;;2.40;99.90;;;;;;4968841;28;20035;-71
2021/12/19 13:19:54;;;;;;;;;;;2.30;99.90;;;;;;4968251;28;20018;-71
2021/12/19 13:22:20;;;;;;;35.72;14.57;;;2.30;99.90;;;;;;4968451;28;19917;-71
2021/12/19 13:24:47;;;;;;;34.10;13.35;;;2.30;99.90;;;;;;4961456;28;20518;-74
2021/12/19 13:27:26;;;;;;;29.23;12.85;;;2.40;99.90;;;;;;4958483;28;20057;-72
2021/12/19 13:30:03;;;;;;;30.95;13.15;;;2.40;99.90;;;;;;4967000;28;20495;-70
2021/12/19 13:32:49;;;;;;;27.73;11.60;;;2.50;99.90;;;;;;4967518;28;20037;-69
2021/12/19 13:35:22;;;;;;;27.38;11.75;;;2.40;99.90;;;;;;4963834;28;20043;-71
2021/12/19 13:38:10;;;;;;;36.42;13.95;;;2.40;99.90;;;;;;4968880;28;20049;-71
2021/12/19 13:40:39;;;;;;;27.52;12.48;;;2.40;99.90;;;;;;4968980;28;20431;-70
2021/12/19 13:43:14;;;;;;;28.15;12.15;;;2.20;99.90;;;;;;4966034;28;20034;-70
2021/12/19 13:45:56;;;;;;;27.55;12.52;;;2.20;99.90;;;;;;4965545;28;20031;-72
2021/12/19 13:48:42;;;;;;;33.10;14.20;;;2.20;99.90;;;;;;4963846;28;20089;-71
2021/12/19 13:51:12;;;;;;;32.53;13.13;;;2.30;99.90;;;;;;4973381;28;20046;-72
2021/12/19 13:53:41;;;;;;;32.17;13.80;;;2.20;99.90;;;;;;4972177;28;20368;-72
2021/12/19 13:56:13;;;;;;;31.27;13.77;;;2.30;99.90;;;;;;4969623;28;20396;-71
2021/12/19 13:58:45;;;;;;;31.13;13.73;;;2.40;99.90;;;;;;4973500;28;20031;-71